sensor_id;sensor_type;location;lat;lon;timestamp;temperature;humidity
26745;DHT22;14342;50.960;13.880;2023-04-03T00:00:10;4.10;99.90
26745;DHT22;14342;50.960;13.880;2023-04-03T00:01:11;4.20;99.90
26745;DHT22;14342;50.960;13.880;2023-04-03T00:02:13;4.20;99.90
26745;DHT22;14342;50.960;13.880;2023-04-03T00:03:13;4.30;99.90
26745;DHT22;14342;50.960;13.880;2023-04-03T00:04:15;4.20;99.90
26745;DHT22;14342;50.960;13.880;2023-04-03T00:05:17;4.20;99.90
26745;DHT22;14342;50.960;13.880;2023-04-03T00:06:19;4.00;99.90
26745;DHT22;14342;50.960;13.880;2023-04-03T00:07:20;3.90;99.90
26745;DHT22;14342;50.960;13.880;2023-04-03T00:08:21;4.00;99.90
26745;DHT22;14342;50.960;13.880;2023-04-03T00:09:22;3.80;99.90
26745;DHT22;14342;50.960;13.880;2023-04-03T00:10:23;3.80;99.90
26745;DHT22;14342;50.960;13.880;2023-04-03T00:11:25;3.80;99.90
26745;DHT22;14342;50.960;13.880;2023-04-03T00:12:26;3.90;99.90
26745;DHT22;14342;50.960;13.880;2023-04-03T00:13:27;3.90;99.90
26745;DHT22;14342;50.960;13.880;2023-04-03T00:14:28;4.00;99.90
26745;DHT22;14342;50.960;13.880;2023-04-03T00:15:29;4.20;99.90
26745;DHT22;14342;50.960;13.880;2023-04-03T00:16:31;4.20;99.90
26745;DHT22;14342;50.960;13.880;2023-04-03T00:17:31;4.20;99.90
26745;DHT22;14342;50.960;13.880;2023-04-03T00:18:33;4.30;99.90
26745;DHT22;14342;50.960;13.880;2023-04-03T00:19:33;4.20;99.90
26745;DHT22;14342;50.960;13.880;2023-04-03T00:20:36;4.20;99.90
26745;DHT22;14342;50.960;13.880;2023-04-03T00:21:37;4.20;99.90
26745;DHT22;14342;50.960;13.880;2023-04-03T00:22:39;4.10;99.90
26745;DHT22;14342;50.960;13.880;2023-04-03T00:23:39;4.00;99.90
26745;DHT22;14342;50.960;13.880;2023-04-03T00:24:41;3.90;99.90
26745;DHT22;14342;50.960;13.880;2023-04-03T00:25:42;3.90;99.90
26745;DHT22;14342;50.960;13.880;2023-04-03T00:26:43;4.10;99.90
26745;DHT22;14342;50.960;13.880;2023-04-03T00:27:44;4.30;99.90
26745;DHT22;14342;50.960;13.880;2023-04-03T00:28:45;4.40;99.90
26745;DHT22;14342;50.960;13.880;2023-04-03T00:29:46;4.60;99.90
26745;DHT22;14342;50.960;13.880;2023-04-03T00:30:48;4.70;99.90
26745;DHT22;14342;50.960;13.880;2023-04-03T00:31:48;4.60;99.90
26745;DHT22;14342;50.960;13.880;2023-04-03T00:32:50;4.50;99.90
26745;DHT22;14342;50.960;13.880;2023-04-03T00:33:51;4.30;99.90
26745;DHT22;14342;50.960;13.880;2023-04-03T00:34:52;4.20;99.90
26745;DHT22;14342;50.960;13.880;2023-04-03T00:35:54;4.10;99.90
26745;DHT22;14342;50.960;13.880;2023-04-03T00:36:56;4.00;99.90
26745;DHT22;14342;50.960;13.880;2023-04-03T00:37:57;4.00;99.90
26745;DHT22;14342;50.960;13.880;2023-04-03T00:38:59;4.10;99.90
26745;DHT22;14342;50.960;13.880;2023-04-03T00:39:59;4.10;99.90
26745;DHT22;14342;50.960;13.880;2023-04-03T00:41:01;4.10;99.90
26745;DHT22;14342;50.960;13.880;2023-04-03T00:42:02;4.20;99.90
26745;DHT22;14342;50.960;13.880;2023-04-03T00:43:05;4.00;99.90
26745;DHT22;14342;50.960;13.880;2023-04-03T00:44:20;4.10;99.90
26745;DHT22;14342;50.960;13.880;2023-04-03T00:45:23;4.20;99.90
26745;DHT22;14342;50.960;13.880;2023-04-03T00:46:24;4.30;99.90
26745;DHT22;14342;50.960;13.880;2023-04-03T00:47:26;4.30;99.90
26745;DHT22;14342;50.960;13.880;2023-04-03T00:48:28;4.40;99.90
26745;DHT22;14342;50.960;13.880;2023-04-03T00:49:30;4.50;99.90
26745;DHT22;14342;50.960;13.880;2023-04-03T00:50:31;4.60;99.90
26745;DHT22;14342;50.960;13.880;2023-04-03T00:51:34;4.60;99.90
26745;DHT22;14342;50.960;13.880;2023-04-03T00:52:35;4.70;99.90
26745;DHT22;14342;50.960;13.880;2023-04-03T00:53:40;4.90;99.90
26745;DHT22;14342;50.960;13.880;2023-04-03T00:54:41;4.80;99.90
26745;DHT22;14342;50.960;13.880;2023-04-03T00:55:44;4.80;99.90
26745;DHT22;14342;50.960;13.880;2023-04-03T00:56:46;4.70;99.90
26745;DHT22;14342;50.960;13.880;2023-04-03T00:57:47;4.70;99.90
26745;DHT22;14342;50.960;13.880;2023-04-03T00:58:50;4.60;99.90
26745;DHT22;14342;50.960;13.880;2023-04-03T00:59:54;4.60;99.90
26745;DHT22;14342;50.960;13.880;2023-04-03T01:00:56;4.70;99.90
26745;DHT22;14342;50.960;13.880;2023-04-03T01:01:59;4.80;99.90
26745;DHT22;14342;50.960;13.880;2023-04-03T01:03:00;4.80;99.90
26745;DHT22;14342;50.960;13.880;2023-04-03T01:04:02;4.90;99.90
26745;DHT22;14342;50.960;13.880;2023-04-03T01:05:03;4.80;99.90
26745;DHT22;14342;50.960;13.880;2023-04-03T01:06:05;4.90;99.90
26745;DHT22;14342;50.960;13.880;2023-04-03T01:07:09;4.90;99.90
26745;DHT22;14342;50.960;13.880;2023-04-03T01:08:10;4.80;99.90
26745;DHT22;14342;50.960;13.880;2023-04-03T01:09:12;4.70;99.90
26745;DHT22;14342;50.960;13.880;2023-04-03T01:10:14;4.70;99.90
26745;DHT22;14342;50.960;13.880;2023-04-03T01:11:16;4.70;99.90
26745;DHT22;14342;50.960;13.880;2023-04-03T01:12:17;4.70;99.90
26745;DHT22;14342;50.960;13.880;2023-04-03T01:13:21;4.60;99.90
26745;DHT22;14342;50.960;13.880;2023-04-03T01:14:22;4.40;99.90
26745;DHT22;14342;50.960;13.880;2023-04-03T01:15:24;4.20;99.90
26745;DHT22;14342;50.960;13.880;2023-04-03T01:16:26;4.00;99.90
26745;DHT22;14342;50.960;13.880;2023-04-03T01:17:31;4.00;99.90
26745;DHT22;14342;50.960;13.880;2023-04-03T01:18:32;4.10;99.90
26745;DHT22;14342;50.960;13.880;2023-04-03T01:19:34;4.20;99.90
26745;DHT22;14342;50.960;13.880;2023-04-03T01:22:12;4.50;99.90
26745;DHT22;14342;50.960;13.880;2023-04-03T01:23:27;4.60;99.90
26745;DHT22;14342;50.960;13.880;2023-04-03T01:24:32;4.60;99.90
26745;DHT22;14342;50.960;13.880;2023-04-03T01:25:33;4.50;99.90
26745;DHT22;14342;50.960;13.880;2023-04-03T01:26:36;4.40;99.90
26745;DHT22;14342;50.960;13.880;2023-04-03T01:27:38;4.40;99.90
26745;DHT22;14342;50.960;13.880;2023-04-03T01:28:38;4.30;99.90
26745;DHT22;14342;50.960;13.880;2023-04-03T01:29:40;4.20;99.90
26745;DHT22;14342;50.960;13.880;2023-04-03T01:30:42;4.00;99.90
26745;DHT22;14342;50.960;13.880;2023-04-03T01:31:48;3.80;99.90
26745;DHT22;14342;50.960;13.880;2023-04-03T01:32:49;3.70;99.90
26745;DHT22;14342;50.960;13.880;2023-04-03T01:33:51;3.60;99.90
26745;DHT22;14342;50.960;13.880;2023-04-03T01:34:51;3.60;99.90
26745;DHT22;14342;50.960;13.880;2023-04-03T01:35:53;3.60;99.90
26745;DHT22;14342;50.960;13.880;2023-04-03T01:36:54;3.50;99.90
26745;DHT22;14342;50.960;13.880;2023-04-03T01:37:55;3.60;99.90
26745;DHT22;14342;50.960;13.880;2023-04-03T01:38:56;3.50;99.90
26745;DHT22;14342;50.960;13.880;2023-04-03T01:39:59;3.50;99.90
26745;DHT22;14342;50.960;13.880;2023-04-03T01:41:00;3.50;99.90
26745;DHT22;14342;50.960;13.880;2023-04-03T01:42:01;3.50;99.90
26745;DHT22;14342;50.960;13.880;2023-04-03T01:43:02;3.50;99.90
26745;DHT22;14342;50.960;13.880;2023-04-03T01:44:03;3.40;99.90
26745;DHT22;14342;50.960;13.880;2023-04-03T01:45:05;3.40;99.90
26745;DHT22;14342;50.960;13.880;2023-04-03T01:46:06;3.40;99.90
26745;DHT22;14342;50.960;13.880;2023-04-03T01:47:09;3.40;99.90
26745;DHT22;14342;50.960;13.880;2023-04-03T01:48:10;3.50;99.90
26745;DHT22;14342;50.960;13.880;2023-04-03T01:49:11;3.40;99.90
26745;DHT22;14342;50.960;13.880;2023-04-03T01:50:13;3.30;99.90
26745;DHT22;14342;50.960;13.880;2023-04-03T01:51:13;3.30;99.90
26745;DHT22;14342;50.960;13.880;2023-04-03T01:52:15;3.40;99.90
26745;DHT22;14342;50.960;13.880;2023-04-03T01:53:16;3.60;99.90
26745;DHT22;14342;50.960;13.880;2023-04-03T01:54:17;3.50;99.90
26745;DHT22;14342;50.960;13.880;2023-04-03T01:55:18;3.40;99.90
26745;DHT22;14342;50.960;13.880;2023-04-03T01:56:19;3.30;99.90
26745;DHT22;14342;50.960;13.880;2023-04-03T01:57:20;3.20;99.90
26745;DHT22;14342;50.960;13.880;2023-04-03T01:58:22;3.00;99.90
26745;DHT22;14342;50.960;13.880;2023-04-03T01:59:22;2.90;99.90
26745;DHT22;14342;50.960;13.880;2023-04-03T02:00:24;2.40;99.90
26745;DHT22;14342;50.960;13.880;2023-04-03T02:01:24;2.70;99.90
26745;DHT22;14342;50.960;13.880;2023-04-03T02:02:28;2.70;99.90
26745;DHT22;14342;50.960;13.880;2023-04-03T02:03:29;2.40;99.90
26745;DHT22;14342;50.960;13.880;2023-04-03T02:04:31;2.30;99.90
26745;DHT22;14342;50.960;13.880;2023-04-03T02:05:31;2.40;99.90
26745;DHT22;14342;50.960;13.880;2023-04-03T02:06:33;2.40;99.90
26745;DHT22;14342;50.960;13.880;2023-04-03T02:07:33;2.30;99.90
26745;DHT22;14342;50.960;13.880;2023-04-03T02:08:35;2.20;99.90
26745;DHT22;14342;50.960;13.880;2023-04-03T02:09:36;2.10;99.90
26745;DHT22;14342;50.960;13.880;2023-04-03T02:10:37;2.20;99.90
26745;DHT22;14342;50.960;13.880;2023-04-03T02:11:38;2.30;99.90
26745;DHT22;14342;50.960;13.880;2023-04-03T02:12:39;2.30;99.90
26745;DHT22;14342;50.960;13.880;2023-04-03T02:13:40;2.40;99.90
26745;DHT22;14342;50.960;13.880;2023-04-03T02:14:42;2.50;99.90
26745;DHT22;14342;50.960;13.880;2023-04-03T02:15:42;2.50;99.90
26745;DHT22;14342;50.960;13.880;2023-04-03T02:16:45;2.50;99.90
26745;DHT22;14342;50.960;13.880;2023-04-03T02:17:47;2.50;99.90
26745;DHT22;14342;50.960;13.880;2023-04-03T02:18:49;2.50;99.90
26745;DHT22;14342;50.960;13.880;2023-04-03T02:19:50;2.50;99.90
26745;DHT22;14342;50.960;13.880;2023-04-03T02:20:51;2.60;99.90
26745;DHT22;14342;50.960;13.880;2023-04-03T02:21:53;2.70;99.90
26745;DHT22;14342;50.960;13.880;2023-04-03T02:22:53;2.70;99.90
26745;DHT22;14342;50.960;13.880;2023-04-03T02:23:55;2.50;99.90
26745;DHT22;14342;50.960;13.880;2023-04-03T02:24:56;2.40;99.90
26745;DHT22;14342;50.960;13.880;2023-04-03T02:26:07;2.30;99.90
26745;DHT22;14342;50.960;13.880;2023-04-03T02:27:08;2.40;99.90
26745;DHT22;14342;50.960;13.880;2023-04-03T02:28:10;2.40;99.90
26745;DHT22;14342;50.960;13.880;2023-04-03T02:29:10;2.40;99.90
26745;DHT22;14342;50.960;13.880;2023-04-03T02:30:12;2.50;99.90
26745;DHT22;14342;50.960;13.880;2023-04-03T02:31:14;2.40;99.90
26745;DHT22;14342;50.960;13.880;2023-04-03T02:32:15;2.40;99.90
26745;DHT22;14342;50.960;13.880;2023-04-03T02:33:17;2.40;99.90
26745;DHT22;14342;50.960;13.880;2023-04-03T02:34:19;2.50;99.90
26745;DHT22;14342;50.960;13.880;2023-04-03T02:35:19;2.50;99.90
26745;DHT22;14342;50.960;13.880;2023-04-03T02:36:21;2.40;99.90
26745;DHT22;14342;50.960;13.880;2023-04-03T02:37:22;2.30;99.90
26745;DHT22;14342;50.960;13.880;2023-04-03T02:38:23;2.30;99.90
26745;DHT22;14342;50.960;13.880;2023-04-03T02:39:24;2.30;99.90
26745;DHT22;14342;50.960;13.880;2023-04-03T02:40:26;2.40;99.90
26745;DHT22;14342;50.960;13.880;2023-04-03T02:41:27;2.50;99.90
26745;DHT22;14342;50.960;13.880;2023-04-03T02:42:35;2.30;99.90
26745;DHT22;14342;50.960;13.880;2023-04-03T02:43:35;2.20;99.90
26745;DHT22;14342;50.960;13.880;2023-04-03T02:44:37;2.20;99.90
26745;DHT22;14342;50.960;13.880;2023-04-03T02:45:39;2.10;99.90
26745;DHT22;14342;50.960;13.880;2023-04-03T02:46:40;2.10;99.90
26745;DHT22;14342;50.960;13.880;2023-04-03T02:47:41;2.10;99.90
26745;DHT22;14342;50.960;13.880;2023-04-03T02:48:44;2.20;99.90
26745;DHT22;14342;50.960;13.880;2023-04-03T02:49:45;2.30;99.90
26745;DHT22;14342;50.960;13.880;2023-04-03T02:50:46;2.30;99.90
26745;DHT22;14342;50.960;13.880;2023-04-03T02:51:47;2.30;99.90
26745;DHT22;14342;50.960;13.880;2023-04-03T02:52:48;2.00;99.90
26745;DHT22;14342;50.960;13.880;2023-04-03T02:53:49;1.70;99.90
26745;DHT22;14342;50.960;13.880;2023-04-03T02:54:51;1.70;99.90
26745;DHT22;14342;50.960;13.880;2023-04-03T02:55:52;1.70;99.90
26745;DHT22;14342;50.960;13.880;2023-04-03T02:56:53;1.70;99.90
26745;DHT22;14342;50.960;13.880;2023-04-03T02:57:54;1.60;99.90
26745;DHT22;14342;50.960;13.880;2023-04-03T02:58:55;1.70;99.90
26745;DHT22;14342;50.960;13.880;2023-04-03T02:59:56;1.70;99.90
26745;DHT22;14342;50.960;13.880;2023-04-03T03:00:58;1.80;99.90
26745;DHT22;14342;50.960;13.880;2023-04-03T03:01:58;1.90;99.90
26745;DHT22;14342;50.960;13.880;2023-04-03T03:03:00;2.10;99.90
26745;DHT22;14342;50.960;13.880;2023-04-03T03:04:02;2.10;99.90
26745;DHT22;14342;50.960;13.880;2023-04-03T03:05:03;1.90;99.90
26745;DHT22;14342;50.960;13.880;2023-04-03T03:06:04;1.70;99.90
26745;DHT22;14342;50.960;13.880;2023-04-03T03:07:06;1.60;99.90
26745;DHT22;14342;50.960;13.880;2023-04-03T03:08:07;1.50;99.90
26745;DHT22;14342;50.960;13.880;2023-04-03T03:09:08;1.50;99.90
26745;DHT22;14342;50.960;13.880;2023-04-03T03:10:09;1.70;99.90
26745;DHT22;14342;50.960;13.880;2023-04-03T03:11:11;1.80;99.90
26745;DHT22;14342;50.960;13.880;2023-04-03T03:12:12;1.90;99.90
26745;DHT22;14342;50.960;13.880;2023-04-03T03:13:13;1.90;99.90
26745;DHT22;14342;50.960;13.880;2023-04-03T03:14:14;1.90;99.90
26745;DHT22;14342;50.960;13.880;2023-04-03T03:15:15;2.00;99.90
26745;DHT22;14342;50.960;13.880;2023-04-03T03:16:17;1.80;99.90
26745;DHT22;14342;50.960;13.880;2023-04-03T03:17:19;1.70;99.90
26745;DHT22;14342;50.960;13.880;2023-04-03T03:18:20;1.50;99.90
26745;DHT22;14342;50.960;13.880;2023-04-03T03:19:22;1.30;99.90
26745;DHT22;14342;50.960;13.880;2023-04-03T03:20:23;1.20;99.90
26745;DHT22;14342;50.960;13.880;2023-04-03T03:21:25;1.30;99.90
26745;DHT22;14342;50.960;13.880;2023-04-03T03:22:26;1.30;99.90
26745;DHT22;14342;50.960;13.880;2023-04-03T03:23:28;1.30;99.90
26745;DHT22;14342;50.960;13.880;2023-04-03T03:24:29;1.30;99.90
26745;DHT22;14342;50.960;13.880;2023-04-03T03:25:30;1.40;99.90
26745;DHT22;14342;50.960;13.880;2023-04-03T03:26:31;1.40;99.90
26745;DHT22;14342;50.960;13.880;2023-04-03T03:27:32;1.40;99.90
26745;DHT22;14342;50.960;13.880;2023-04-03T03:28:33;1.40;99.90
26745;DHT22;14342;50.960;13.880;2023-04-03T03:29:35;1.40;99.90
26745;DHT22;14342;50.960;13.880;2023-04-03T03:30:36;1.30;99.90
26745;DHT22;14342;50.960;13.880;2023-04-03T03:31:37;1.30;99.90
26745;DHT22;14342;50.960;13.880;2023-04-03T03:32:38;1.20;99.90
26745;DHT22;14342;50.960;13.880;2023-04-03T03:33:39;1.20;99.90
26745;DHT22;14342;50.960;13.880;2023-04-03T03:34:41;1.30;99.90
26745;DHT22;14342;50.960;13.880;2023-04-03T03:35:43;1.30;99.90
26745;DHT22;14342;50.960;13.880;2023-04-03T03:36:44;1.40;99.90
26745;DHT22;14342;50.960;13.880;2023-04-03T03:37:45;1.40;99.90
26745;DHT22;14342;50.960;13.880;2023-04-03T03:38:46;1.40;99.90
26745;DHT22;14342;50.960;13.880;2023-04-03T03:39:47;1.20;99.90
26745;DHT22;14342;50.960;13.880;2023-04-03T03:40:48;1.20;99.90
26745;DHT22;14342;50.960;13.880;2023-04-03T03:41:50;1.30;99.90
26745;DHT22;14342;50.960;13.880;2023-04-03T03:42:53;1.40;99.90
26745;DHT22;14342;50.960;13.880;2023-04-03T03:43:55;1.30;99.90
26745;DHT22;14342;50.960;13.880;2023-04-03T03:44:55;1.20;99.90
26745;DHT22;14342;50.960;13.880;2023-04-03T03:45:57;1.20;99.90
26745;DHT22;14342;50.960;13.880;2023-04-03T03:46:58;1.20;99.90
26745;DHT22;14342;50.960;13.880;2023-04-03T03:48:00;1.30;99.90
26745;DHT22;14342;50.960;13.880;2023-04-03T03:49:00;1.20;99.90
26745;DHT22;14342;50.960;13.880;2023-04-03T03:50:04;1.20;99.90
26745;DHT22;14342;50.960;13.880;2023-04-03T03:51:05;1.20;99.90
26745;DHT22;14342;50.960;13.880;2023-04-03T03:52:06;1.30;99.90
26745;DHT22;14342;50.960;13.880;2023-04-03T03:53:10;1.30;99.90
26745;DHT22;14342;50.960;13.880;2023-04-03T03:54:12;1.30;99.90
26745;DHT22;14342;50.960;13.880;2023-04-03T03:55:14;1.40;99.90
26745;DHT22;14342;50.960;13.880;2023-04-03T03:56:14;1.10;99.90
26745;DHT22;14342;50.960;13.880;2023-04-03T03:57:16;1.10;99.90
26745;DHT22;14342;50.960;13.880;2023-04-03T03:58:17;1.20;99.90
26745;DHT22;14342;50.960;13.880;2023-04-03T03:59:18;1.20;99.90
26745;DHT22;14342;50.960;13.880;2023-04-03T04:00:19;1.30;99.90
26745;DHT22;14342;50.960;13.880;2023-04-03T04:01:20;1.40;99.90
26745;DHT22;14342;50.960;13.880;2023-04-03T04:02:22;1.50;99.90
26745;DHT22;14342;50.960;13.880;2023-04-03T04:03:23;1.50;99.90
26745;DHT22;14342;50.960;13.880;2023-04-03T04:04:24;1.40;99.90
26745;DHT22;14342;50.960;13.880;2023-04-03T04:05:26;1.40;99.90
26745;DHT22;14342;50.960;13.880;2023-04-03T04:06:28;1.20;99.90
26745;DHT22;14342;50.960;13.880;2023-04-03T04:07:28;1.20;99.90
26745;DHT22;14342;50.960;13.880;2023-04-03T04:08:30;1.30;99.90
26745;DHT22;14342;50.960;13.880;2023-04-03T04:09:31;1.30;99.90
26745;DHT22;14342;50.960;13.880;2023-04-03T04:10:32;1.30;99.90
26745;DHT22;14342;50.960;13.880;2023-04-03T04:11:33;1.20;99.90
26745;DHT22;14342;50.960;13.880;2023-04-03T04:12:35;1.10;99.90
26745;DHT22;14342;50.960;13.880;2023-04-03T04:13:35;1.10;99.90
26745;DHT22;14342;50.960;13.880;2023-04-03T04:14:37;1.10;99.90
26745;DHT22;14342;50.960;13.880;2023-04-03T04:15:37;1.10;99.90
26745;DHT22;14342;50.960;13.880;2023-04-03T04:16:39;1.20;99.90
26745;DHT22;14342;50.960;13.880;2023-04-03T04:17:40;1.20;99.90
26745;DHT22;14342;50.960;13.880;2023-04-03T04:18:41;1.20;99.90
26745;DHT22;14342;50.960;13.880;2023-04-03T04:19:42;1.20;99.90
26745;DHT22;14342;50.960;13.880;2023-04-03T04:20:45;1.20;99.90
26745;DHT22;14342;50.960;13.880;2023-04-03T04:21:46;1.30;99.90
26745;DHT22;14342;50.960;13.880;2023-04-03T04:22:48;1.30;99.90
26745;DHT22;14342;50.960;13.880;2023-04-03T04:23:48;1.30;99.90
26745;DHT22;14342;50.960;13.880;2023-04-03T04:24:50;1.30;99.90
26745;DHT22;14342;50.960;13.880;2023-04-03T04:25:50;1.40;99.90
26745;DHT22;14342;50.960;13.880;2023-04-03T04:26:52;1.40;99.90
26745;DHT22;14342;50.960;13.880;2023-04-03T04:27:52;1.40;99.90
26745;DHT22;14342;50.960;13.880;2023-04-03T04:28:54;1.30;99.90
26745;DHT22;14342;50.960;13.880;2023-04-03T04:29:54;1.30;99.90
26745;DHT22;14342;50.960;13.880;2023-04-03T04:30:56;1.30;99.90
26745;DHT22;14342;50.960;13.880;2023-04-03T04:31:58;1.30;99.90
26745;DHT22;14342;50.960;13.880;2023-04-03T04:32:58;1.10;99.90
26745;DHT22;14342;50.960;13.880;2023-04-03T04:34:00;1.00;99.90
26745;DHT22;14342;50.960;13.880;2023-04-03T04:35:00;0.90;99.90
26745;DHT22;14342;50.960;13.880;2023-04-03T04:36:04;0.80;99.90
26745;DHT22;14342;50.960;13.880;2023-04-03T04:37:04;0.80;99.90
26745;DHT22;14342;50.960;13.880;2023-04-03T04:38:06;0.80;99.90
26745;DHT22;14342;50.960;13.880;2023-04-03T04:39:07;0.80;99.90
26745;DHT22;14342;50.960;13.880;2023-04-03T04:40:08;0.80;99.90
26745;DHT22;14342;50.960;13.880;2023-04-03T04:41:09;0.70;99.90
26745;DHT22;14342;50.960;13.880;2023-04-03T04:42:11;0.60;99.90
26745;DHT22;14342;50.960;13.880;2023-04-03T04:43:13;0.50;99.90
26745;DHT22;14342;50.960;13.880;2023-04-03T04:44:14;0.40;99.90
26745;DHT22;14342;50.960;13.880;2023-04-03T04:45:15;0.20;99.90
26745;DHT22;14342;50.960;13.880;2023-04-03T04:46:17;0.20;99.90
26745;DHT22;14342;50.960;13.880;2023-04-03T04:47:17;0.20;99.90
26745;DHT22;14342;50.960;13.880;2023-04-03T04:48:19;0.20;99.90
26745;DHT22;14342;50.960;13.880;2023-04-03T04:49:20;0.20;99.90
26745;DHT22;14342;50.960;13.880;2023-04-03T04:50:21;0.20;99.90
26745;DHT22;14342;50.960;13.880;2023-04-03T04:51:24;0.20;99.90
26745;DHT22;14342;50.960;13.880;2023-04-03T04:52:26;0.30;99.90
26745;DHT22;14342;50.960;13.880;2023-04-03T04:53:27;0.40;99.90
26745;DHT22;14342;50.960;13.880;2023-04-03T04:54:28;0.30;99.90
26745;DHT22;14342;50.960;13.880;2023-04-03T04:55:29;0.40;99.90
26745;DHT22;14342;50.960;13.880;2023-04-03T04:56:30;0.40;99.90
26745;DHT22;14342;50.960;13.880;2023-04-03T04:57:31;0.40;99.90
26745;DHT22;14342;50.960;13.880;2023-04-03T04:58:32;0.40;99.90
26745;DHT22;14342;50.960;13.880;2023-04-03T04:59:33;0.40;99.90
26745;DHT22;14342;50.960;13.880;2023-04-03T05:00:35;0.30;99.90
26745;DHT22;14342;50.960;13.880;2023-04-03T05:01:36;0.30;99.90
26745;DHT22;14342;50.960;13.880;2023-04-03T05:02:37;0.50;99.90
26745;DHT22;14342;50.960;13.880;2023-04-03T05:03:38;0.80;99.90
26745;DHT22;14342;50.960;13.880;2023-04-03T05:04:39;0.60;99.90
26745;DHT22;14342;50.960;13.880;2023-04-03T05:05:41;0.60;99.90
26745;DHT22;14342;50.960;13.880;2023-04-03T05:06:43;0.50;99.90
26745;DHT22;14342;50.960;13.880;2023-04-03T05:07:44;0.60;99.90
26745;DHT22;14342;50.960;13.880;2023-04-03T05:08:46;0.60;99.90
26745;DHT22;14342;50.960;13.880;2023-04-03T05:09:47;0.70;99.90
26745;DHT22;14342;50.960;13.880;2023-04-03T05:10:48;0.90;99.90
26745;DHT22;14342;50.960;13.880;2023-04-03T05:11:49;0.90;99.90
26745;DHT22;14342;50.960;13.880;2023-04-03T05:12:51;0.90;99.90
26745;DHT22;14342;50.960;13.880;2023-04-03T05:13:51;0.70;99.90
26745;DHT22;14342;50.960;13.880;2023-04-03T05:14:53;0.60;99.90
26745;DHT22;14342;50.960;13.880;2023-04-03T05:15:55;0.50;99.90
26745;DHT22;14342;50.960;13.880;2023-04-03T05:16:55;0.50;99.90
26745;DHT22;14342;50.960;13.880;2023-04-03T05:17:57;0.40;99.90
26745;DHT22;14342;50.960;13.880;2023-04-03T05:18:59;0.30;99.90
26745;DHT22;14342;50.960;13.880;2023-04-03T05:20:00;0.30;99.90
26745;DHT22;14342;50.960;13.880;2023-04-03T05:21:03;0.20;99.90
26745;DHT22;14342;50.960;13.880;2023-04-03T05:22:06;0.30;99.90
26745;DHT22;14342;50.960;13.880;2023-04-03T05:23:07;0.20;99.90
26745;DHT22;14342;50.960;13.880;2023-04-03T05:24:08;0.30;99.90
26745;DHT22;14342;50.960;13.880;2023-04-03T05:25:09;0.20;99.90
26745;DHT22;14342;50.960;13.880;2023-04-03T05:26:11;0.20;99.90
26745;DHT22;14342;50.960;13.880;2023-04-03T05:27:11;0.20;99.90
26745;DHT22;14342;50.960;13.880;2023-04-03T05:28:13;0.20;99.90
26745;DHT22;14342;50.960;13.880;2023-04-03T05:29:13;0.20;99.90
26745;DHT22;14342;50.960;13.880;2023-04-03T05:30:15;0.30;99.90
26745;DHT22;14342;50.960;13.880;2023-04-03T05:31:16;0.40;99.90
26745;DHT22;14342;50.960;13.880;2023-04-03T05:32:17;0.30;99.90
26745;DHT22;14342;50.960;13.880;2023-04-03T05:33:18;0.40;99.90
26745;DHT22;14342;50.960;13.880;2023-04-03T05:34:19;0.50;99.90
26745;DHT22;14342;50.960;13.880;2023-04-03T05:35:21;0.50;99.90
26745;DHT22;14342;50.960;13.880;2023-04-03T05:36:22;0.50;99.90
26745;DHT22;14342;50.960;13.880;2023-04-03T05:37:25;0.30;99.90
26745;DHT22;14342;50.960;13.880;2023-04-03T05:38:25;0.20;99.90
26745;DHT22;14342;50.960;13.880;2023-04-03T05:39:27;-0.20;99.90
26745;DHT22;14342;50.960;13.880;2023-04-03T05:40:27;0.30;99.90
26745;DHT22;14342;50.960;13.880;2023-04-03T05:41:29;0.40;99.90
26745;DHT22;14342;50.960;13.880;2023-04-03T05:42:30;0.60;99.90
26745;DHT22;14342;50.960;13.880;2023-04-03T05:43:31;0.60;99.90
26745;DHT22;14342;50.960;13.880;2023-04-03T05:44:32;0.70;99.90
26745;DHT22;14342;50.960;13.880;2023-04-03T05:45:34;0.80;99.90
26745;DHT22;14342;50.960;13.880;2023-04-03T05:46:35;0.90;99.90
26745;DHT22;14342;50.960;13.880;2023-04-03T05:47:38;0.70;99.90
26745;DHT22;14342;50.960;13.880;2023-04-03T05:48:38;0.70;99.90
26745;DHT22;14342;50.960;13.880;2023-04-03T05:49:40;0.80;99.90
26745;DHT22;14342;50.960;13.880;2023-04-03T05:50:41;0.90;99.90
26745;DHT22;14342;50.960;13.880;2023-04-03T05:51:42;1.00;99.90
26745;DHT22;14342;50.960;13.880;2023-04-03T05:52:46;1.00;99.90
26745;DHT22;14342;50.960;13.880;2023-04-03T05:53:49;1.00;99.90
26745;DHT22;14342;50.960;13.880;2023-04-03T05:54:52;1.10;99.90
26745;DHT22;14342;50.960;13.880;2023-04-03T05:55:54;1.00;99.90
26745;DHT22;14342;50.960;13.880;2023-04-03T05:56:54;1.00;99.90
26745;DHT22;14342;50.960;13.880;2023-04-03T05:57:56;1.00;99.90
26745;DHT22;14342;50.960;13.880;2023-04-03T05:58:57;1.20;99.90
26745;DHT22;14342;50.960;13.880;2023-04-03T05:59:58;1.00;99.90
26745;DHT22;14342;50.960;13.880;2023-04-03T06:00:59;1.10;99.90
26745;DHT22;14342;50.960;13.880;2023-04-03T06:02:00;1.10;99.90
26745;DHT22;14342;50.960;13.880;2023-04-03T06:03:03;1.20;99.90
26745;DHT22;14342;50.960;13.880;2023-04-03T06:04:04;1.20;99.90
26745;DHT22;14342;50.960;13.880;2023-04-03T06:05:06;1.20;99.90
26745;DHT22;14342;50.960;13.880;2023-04-03T06:06:10;1.30;99.90
26745;DHT22;14342;50.960;13.880;2023-04-03T06:07:12;1.30;99.90
26745;DHT22;14342;50.960;13.880;2023-04-03T06:08:15;1.40;99.90
26745;DHT22;14342;50.960;13.880;2023-04-03T06:09:16;1.60;99.90
26745;DHT22;14342;50.960;13.880;2023-04-03T06:10:18;1.60;99.90
26745;DHT22;14342;50.960;13.880;2023-04-03T06:11:20;1.60;99.90
26745;DHT22;14342;50.960;13.880;2023-04-03T06:12:22;1.50;99.90
26745;DHT22;14342;50.960;13.880;2023-04-03T06:13:23;1.50;99.90
26745;DHT22;14342;50.960;13.880;2023-04-03T06:14:25;1.50;99.90
26745;DHT22;14342;50.960;13.880;2023-04-03T06:15:26;1.60;99.90
26745;DHT22;14342;50.960;13.880;2023-04-03T06:16:27;1.70;99.90
26745;DHT22;14342;50.960;13.880;2023-04-03T06:17:29;1.70;99.90
26745;DHT22;14342;50.960;13.880;2023-04-03T06:18:30;1.60;99.90
26745;DHT22;14342;50.960;13.880;2023-04-03T06:19:31;1.70;99.90
26745;DHT22;14342;50.960;13.880;2023-04-03T06:20:33;1.60;99.90
26745;DHT22;14342;50.960;13.880;2023-04-03T06:21:34;1.70;99.90
26745;DHT22;14342;50.960;13.880;2023-04-03T06:22:36;1.70;99.90
26745;DHT22;14342;50.960;13.880;2023-04-03T06:23:38;1.60;99.90
26745;DHT22;14342;50.960;13.880;2023-04-03T06:24:40;1.80;99.90
26745;DHT22;14342;50.960;13.880;2023-04-03T06:25:41;1.30;99.90
26745;DHT22;14342;50.960;13.880;2023-04-03T06:26:43;1.60;99.90
26745;DHT22;14342;50.960;13.880;2023-04-03T06:27:44;1.70;99.90
26745;DHT22;14342;50.960;13.880;2023-04-03T06:28:46;1.70;99.90
26745;DHT22;14342;50.960;13.880;2023-04-03T06:29:46;1.60;99.90